Time;durP1;ratioP1;P1;durP2;ratioP2;P2;SDS_P1;SDS_P2;PMS_P1;PMS_P2;Temp;Humidity;BMP_temperature;BMP_pressure;BME280_temperature;BME280_humidity;BME280_pressure;Samples;Min_cycle;Max_cycle;Signal;HPM_P1;HPM_P2
2023/07/16 00:01:03;;;;;;;6.43;4.37;;;24.90;69.10;;;;;;4997263;28;21005;-71
2023/07/16 00:03:29;;;;;;;6.40;4.47;;;24.90;69.50;;;;;;4997483;28;20529;-70
2023/07/16 00:05:58;;;;;;;6.93;4.37;;;24.90;69.40;;;;;;4997425;28;20565;-70
2023/07/16 00:08:25;;;;;;;6.33;4.43;;;24.80;69.60;;;;;;4997621;28;20522;-70
2023/07/16 00:10:52;;;;;;;8.50;4.60;;;24.70;69.80;;;;;;4997512;28;20477;-70
2023/07/16 00:13:19;;;;;;;6.23;3.97;;;24.70;69.90;;;;;;4997495;28;20547;-70
2023/07/16 00:15:46;;;;;;;5.80;4.83;;;24.70;70.30;;;;;;4996614;28;20522;-70
2023/07/16 00:18:13;;;;;;;7.63;4.63;;;24.70;70.20;;;;;;4996981;28;20490;-70
2023/07/16 00:20:40;;;;;;;6.53;4.93;;;24.70;70.40;;;;;;4997286;28;20526;-70
2023/07/16 00:23:08;;;;;;;7.10;4.93;;;24.70;70.20;;;;;;4997310;28;20537;-70
2023/07/16 00:25:36;;;;;;;6.43;4.40;;;24.60;70.10;;;;;;4997114;28;20557;-71
2023/07/16 00:28:03;;;;;;;11.10;5.00;;;24.50;70.60;;;;;;4997094;28;20526;-70
2023/07/16 00:30:30;;;;;;;5.93;5.27;;;24.50;71.10;;;;;;4997076;28;20550;-71
2023/07/16 00:32:57;;;;;;;5.83;4.43;;;24.40;71.30;;;;;;4996970;28;20478;-70
2023/07/16 00:35:24;;;;;;;6.37;4.57;;;24.50;71.70;;;;;;4997028;28;20491;-70
2023/07/16 00:37:51;;;;;;;8.37;5.23;;;24.50;71.80;;;;;;4996991;28;20985;-70
2023/07/16 00:40:20;;;;;;;9.33;5.20;;;24.40;71.90;;;;;;5013542;28;20453;-70
2023/07/16 00:42:47;;;;;;;8.10;5.10;;;24.30;71.80;;;;;;5016098;28;20527;-70
2023/07/16 00:45:14;;;;;;;7.20;5.17;;;24.30;72.10;;;;;;5016353;28;20444;-70
2023/07/16 00:47:42;;;;;;;6.10;4.90;;;24.30;72.60;;;;;;5016026;28;20441;-71
2023/07/16 00:50:11;;;;;;;8.13;4.90;;;24.20;73.30;;;;;;5015993;28;20444;-71
2023/07/16 00:52:38;;;;;;;5.70;4.47;;;24.10;73.60;;;;;;5016373;28;20445;-71
2023/07/16 00:55:06;;;;;;;6.33;4.70;;;24.10;73.70;;;;;;5016020;28;21103;-70
2023/07/16 00:57:35;;;;;;;7.80;4.70;;;24.10;73.40;;;;;;5016125;28;20492;-70
2023/07/16 01:00:02;;;;;;;8.07;4.77;;;24.20;74.30;;;;;;5000063;28;20521;-71
2023/07/16 01:02:29;;;;;;;9.30;5.50;;;24.20;73.40;;;;;;4996491;28;20525;-70
2023/07/16 01:04:56;;;;;;;4.53;4.03;;;24.10;73.40;;;;;;4996167;28;20534;-70
2023/07/16 01:07:26;;;;;;;7.40;6.07;;;24.10;73.60;;;;;;4995000;28;20483;-71
2023/07/16 01:09:55;;;;;;;6.20;4.53;;;24.20;73.90;;;;;;5009521;28;20523;-71
2023/07/16 01:12:28;;;;;;;6.73;4.70;;;24.20;74.20;;;;;;5015565;28;20821;-71
2023/07/16 01:14:58;;;;;;;5.37;4.60;;;24.20;74.30;;;;;;5015921;28;20839;-71
2023/07/16 01:17:26;;;;;;;4.50;3.73;;;24.20;74.60;;;;;;5003038;28;20481;-70
2023/07/16 01:19:53;;;;;;;6.70;4.60;;;24.20;74.70;;;;;;5009604;28;20523;-71
2023/07/16 01:22:45;;;;;;;6.53;4.80;;;24.20;74.70;;;;;;5015337;28;20477;-71
2023/07/16 01:25:35;;;;;;;6.23;4.73;;;24.20;74.50;;;;;;5015623;28;20513;-70
2023/07/16 01:28:28;;;;;;;6.03;4.10;;;24.20;74.30;;;;;;5015088;28;20479;-70
2023/07/16 01:30:59;;;;;;;5.90;4.87;;;24.20;74.50;;;;;;5015447;28;20434;-70
2023/07/16 01:33:27;;;;;;;5.70;4.73;;;24.20;74.60;;;;;;5015534;28;20516;-70
2023/07/16 01:35:55;;;;;;;6.63;5.03;;;24.20;74.70;;;;;;5015394;28;20950;-70
2023/07/16 01:38:23;;;;;;;5.40;4.50;;;24.20;74.80;;;;;;5015487;28;20508;-71
2023/07/16 01:40:52;;;;;;;5.53;4.90;;;24.20;74.90;;;;;;5015186;28;20534;-71
2023/07/16 01:43:25;;;;;;;5.43;4.30;;;24.20;74.90;;;;;;5007013;28;20552;-70
2023/07/16 01:45:52;;;;;;;5.93;5.30;;;24.20;75.10;;;;;;5015089;28;20496;-70
2023/07/16 01:48:30;;;;;;;6.43;5.40;;;24.30;75.40;;;;;;5015237;28;20481;-70
2023/07/16 01:50:57;;;;;;;5.93;4.43;;;24.30;75.50;;;;;;5015366;28;20868;-70
2023/07/16 01:53:24;;;;;;;5.90;5.20;;;24.30;75.90;;;;;;5015066;28;20540;-70
2023/07/16 01:55:51;;;;;;;7.20;4.90;;;24.20;76.20;;;;;;5015131;28;20482;-70
2023/07/16 01:58:18;;;;;;;5.83;4.50;;;24.20;76.40;;;;;;4968516;28;20438;-70
2023/07/16 02:00:45;;;;;;;7.60;5.00;;;24.20;76.50;;;;;;4993778;28;20529;-71
2023/07/16 02:03:12;;;;;;;7.53;4.50;;;24.30;76.60;;;;;;4995171;28;20465;-71
2023/07/16 02:05:41;;;;;;;6.63;4.63;;;24.30;76.40;;;;;;4998110;28;20517;-71
2023/07/16 02:08:13;;;;;;;6.60;4.60;;;24.30;76.50;;;;;;4995399;28;20434;-71
2023/07/16 02:10:40;;;;;;;7.63;4.90;;;24.30;76.60;;;;;;5014581;28;20465;-71
2023/07/16 02:13:07;;;;;;;6.73;4.67;;;24.30;76.60;;;;;;5014288;28;20512;-71
2023/07/16 02:15:34;;;;;;;9.03;4.60;;;24.40;76.70;;;;;;5014990;28;20444;-70
2023/07/16 02:18:01;;;;;;;6.53;4.57;;;24.30;76.60;;;;;;5014522;28;20457;-71
2023/07/16 02:20:28;;;;;;;6.70;4.47;;;24.30;76.90;;;;;;5014429;28;20484;-71
2023/07/16 02:22:56;;;;;;;5.73;4.20;;;24.30;77.10;;;;;;5014573;28;20481;-70
2023/07/16 02:25:23;;;;;;;7.00;4.90;;;24.30;76.90;;;;;;5013168;28;20990;-71
2023/07/16 02:27:50;;;;;;;9.17;4.60;;;24.30;77.30;;;;;;5014227;28;20511;-71
2023/07/16 02:30:17;;;;;;;6.73;4.70;;;24.30;77.50;;;;;;5009414;28;20526;-71
2023/07/16 02:32:44;;;;;;;5.87;4.37;;;24.30;77.60;;;;;;4994478;28;20533;-70
2023/07/16 02:35:12;;;;;;;8.50;4.60;;;24.30;77.80;;;;;;4994545;28;20445;-70
2023/07/16 02:37:38;;;;;;;5.77;4.70;;;24.40;77.90;;;;;;4994477;28;20476;-71
2023/07/16 02:40:08;;;;;;;6.10;5.07;;;24.30;77.80;;;;;;4995315;28;20439;-72
2023/07/16 02:42:35;;;;;;;5.40;4.37;;;24.40;77.90;;;;;;5013595;28;20442;-71
2023/07/16 02:45:02;;;;;;;6.87;5.07;;;24.30;77.90;;;;;;5014129;28;20488;-71
2023/07/16 02:47:29;;;;;;;6.87;5.50;;;24.30;77.90;;;;;;5014245;28;20473;-70
2023/07/16 02:50:01;;;;;;;7.40;5.10;;;24.40;78.00;;;;;;5013180;28;20473;-70
2023/07/16 02:52:28;;;;;;;9.87;5.00;;;24.30;78.00;;;;;;5010340;28;20526;-72
2023/07/16 02:54:55;;;;;;;6.40;5.10;;;24.30;78.10;;;;;;5013992;28;20469;-71
2023/07/16 02:57:24;;;;;;;5.60;4.77;;;24.30;78.50;;;;;;5014052;28;20859;-70
2023/07/16 02:59:51;;;;;;;9.83;4.70;;;24.30;78.70;;;;;;5013618;28;20477;-72
2023/07/16 03:02:18;;;;;;;7.80;5.03;;;24.30;79.80;;;;;;5007512;28;20441;-71
2023/07/16 03:04:45;;;;;;;8.20;4.70;;;24.30;79.30;;;;;;5013972;28;20861;-70
2023/07/16 03:07:12;;;;;;;4.90;4.13;;;24.30;79.70;;;;;;5013816;28;20475;-71
2023/07/16 03:09:39;;;;;;;6.90;5.20;;;24.30;80.10;;;;;;5013575;28;20532;-71
2023/07/16 03:12:07;;;;;;;7.27;5.60;;;24.30;80.20;;;;;;4998374;28;20497;-71
2023/07/16 03:14:35;;;;;;;7.57;4.57;;;24.30;80.30;;;;;;4994028;28;20530;-70
2023/07/16 03:17:03;;;;;;;6.60;4.43;;;24.30;80.60;;;;;;4994298;28;20867;-70
2023/07/16 03:19:30;;;;;;;7.37;4.67;;;24.30;80.70;;;;;;4994120;28;20519;-70
2023/07/16 03:21:57;;;;;;;7.70;5.53;;;24.30;81.30;;;;;;5009407;28;20478;-71
2023/07/16 03:24:24;;;;;;;8.33;4.57;;;24.30;82.90;;;;;;5013397;28;20483;-70
2023/07/16 03:26:51;;;;;;;11.63;6.10;;;24.30;84.00;;;;;;5013274;28;20515;-71
2023/07/16 03:29:18;;;;;;;9.73;5.73;;;24.30;85.40;;;;;;5014417;28;20536;-70
2023/07/16 03:31:46;;;;;;;10.03;6.03;;;24.20;88.30;;;;;;5017868;28;20491;-70
2023/07/16 03:34:14;;;;;;;9.53;5.83;;;24.20;89.90;;;;;;5017410;28;20532;-70
2023/07/16 03:36:41;;;;;;;6.03;5.17;;;24.20;90.30;;;;;;5017567;28;20456;-69
2023/07/16 03:39:08;;;;;;;9.63;5.30;;;24.20;90.30;;;;;;5017615;28;20525;-69
2023/07/16 03:41:35;;;;;;;8.43;5.67;;;24.20;90.50;;;;;;5017168;28;20535;-69
2023/07/16 03:44:01;;;;;;;7.37;5.17;;;24.20;90.50;;;;;;5017561;28;20536;-69
2023/07/16 03:46:28;;;;;;;9.60;5.00;;;24.10;90.80;;;;;;5017451;28;20559;-69
2023/07/16 03:48:57;;;;;;;6.33;5.10;;;24.10;91.40;;;;;;5017227;28;20529;-69
2023/07/16 03:51:24;;;;;;;6.10;5.40;;;24.00;91.30;;;;;;5017088;28;20441;-69
2023/07/16 03:53:50;;;;;;;11.90;5.93;;;24.00;91.50;;;;;;5017470;28;20441;-69
2023/07/16 03:56:17;;;;;;;7.00;5.20;;;23.90;91.90;;;;;;5017378;28;20477;-70
2023/07/16 03:58:44;;;;;;;6.47;4.60;;;23.90;92.40;;;;;;5017342;28;20531;-69
2023/07/16 04:01:11;;;;;;;7.43;5.73;;;23.80;92.70;;;;;;5006756;28;20453;-69
2023/07/16 04:03:38;;;;;;;8.73;4.90;;;23.80;92.90;;;;;;4997169;28;20538;-69
2023/07/16 04:06:10;;;;;;;6.77;4.27;;;23.80;93.30;;;;;;4997615;28;20524;-69
2023/07/16 04:08:37;;;;;;;4.20;2.90;;;23.70;93.20;;;;;;4997509;28;20465;-69
2023/07/16 04:11:14;;;;;;;6.07;2.67;;;23.70;92.80;;;;;;5004183;28;20514;-69
2023/07/16 04:13:40;;;;;;;4.67;2.27;;;23.60;92.00;;;;;;5016891;28;20435;-69
2023/07/16 04:16:07;;;;;;;4.80;3.17;;;23.50;91.50;;;;;;5017016;28;20499;-69
2023/07/16 04:18:34;;;;;;;3.53;1.90;;;23.40;91.80;;;;;;5016980;28;20532;-69
2023/07/16 04:21:01;;;;;;;2.90;1.80;;;23.40;91.70;;;;;;5016943;28;20528;-69
2023/07/16 04:23:29;;;;;;;2.57;1.57;;;23.40;91.70;;;;;;5016886;28;20543;-69
2023/07/16 04:25:56;;;;;;;3.00;1.80;;;23.30;91.90;;;;;;5016498;28;20523;-69
2023/07/16 04:28:23;;;;;;;3.00;1.47;;;23.20;91.90;;;;;;5016589;28;20507;-69
2023/07/16 04:30:50;;;;;;;3.97;2.07;;;23.20;92.10;;;;;;5009714;28;20531;-69
2023/07/16 04:33:19;;;;;;;3.60;1.87;;;23.10;92.00;;;;;;4996570;28;20524;-69
2023/07/16 04:35:46;;;;;;;3.57;1.50;;;23.10;92.20;;;;;;4997034;28;20444;-69
2023/07/16 04:38:13;;;;;;;3.37;1.80;;;23.10;92.50;;;;;;4989136;28;20796;-69
2023/07/16 04:40:43;;;;;;;4.03;2.00;;;23.00;92.60;;;;;;4996634;28;20534;-69
2023/07/16 04:43:10;;;;;;;2.80;1.60;;;23.00;92.10;;;;;;4996564;28;20432;-70
2023/07/16 04:45:38;;;;;;;2.53;2.03;;;22.80;92.70;;;;;;4996785;28;20468;-69
2023/07/16 04:48:06;;;;;;;3.40;1.73;;;22.70;93.20;;;;;;4994076;28;20513;-69
2023/07/16 04:50:33;;;;;;;2.10;1.20;;;22.70;93.30;;;;;;4994570;28;20491;-70
2023/07/16 04:53:00;;;;;;;3.77;2.27;;;22.60;93.60;;;;;;5008920;28;20449;-70
2023/07/16 04:55:27;;;;;;;3.30;2.03;;;22.50;93.90;;;;;;4995766;28;20855;-69
2023/07/16 04:57:56;;;;;;;3.60;1.53;;;22.50;94.50;;;;;;4995564;28;20533;-69
2023/07/16 05:00:29;;;;;;;9.20;1.80;;;22.50;94.50;;;;;;5013976;28;20886;-70
2023/07/16 05:02:56;;;;;;;3.60;2.00;;;22.50;93.80;;;;;;5015350;28;20820;-69
2023/07/16 05:05:23;;;;;;;3.23;2.00;;;22.60;93.70;;;;;;5015574;28;20854;-69
2023/07/16 05:07:50;;;;;;;2.93;1.80;;;22.50;93.80;;;;;;5015049;28;20478;-69
2023/07/16 05:10:17;;;;;;;3.47;1.43;;;22.50;94.10;;;;;;5014900;28;20540;-70
2023/07/16 05:12:44;;;;;;;2.47;1.67;;;22.40;94.40;;;;;;5014060;28;20547;-69
2023/07/16 05:15:12;;;;;;;5.00;2.70;;;22.30;94.70;;;;;;5015047;28;20526;-69
2023/07/16 05:17:39;;;;;;;3.60;2.00;;;22.20;95.00;;;;;;5014904;28;20954;-70
2023/07/16 05:20:09;;;;;;;2.63;1.60;;;22.10;95.00;;;;;;5014902;28;20440;-68
2023/07/16 05:22:36;;;;;;;5.47;2.60;;;22.10;95.80;;;;;;5015228;28;20448;-69
2023/07/16 05:25:03;;;;;;;4.27;2.57;;;22.00;96.70;;;;;;5015220;28;20534;-69
2023/07/16 05:27:30;;;;;;;2.93;1.47;;;22.00;97.20;;;;;;5014869;28;20808;-69
2023/07/16 05:29:57;;;;;;;3.30;1.93;;;22.00;97.40;;;;;;5015089;28;20479;-69
2023/07/16 05:32:25;;;;;;;2.50;1.77;;;22.10;97.90;;;;;;4997409;28;20537;-69
2023/07/16 05:34:52;;;;;;;3.73;1.70;;;22.10;98.10;;;;;;4995405;28;20876;-71
2023/07/16 05:37:19;;;;;;;2.90;1.80;;;22.10;98.30;;;;;;4995008;28;20523;-69
2023/07/16 05:39:46;;;;;;;3.47;1.80;;;22.20;98.40;;;;;;4995231;28;20528;-69
2023/07/16 05:42:13;;;;;;;3.80;1.63;;;22.20;98.40;;;;;;5009544;28;20857;-69
2023/07/16 05:44:40;;;;;;;2.60;1.43;;;22.30;97.90;;;;;;5014814;28;20444;-69
2023/07/16 05:47:08;;;;;;;4.20;2.10;;;22.40;97.30;;;;;;5014514;28;20475;-69
2023/07/16 05:49:36;;;;;;;3.63;2.43;;;22.40;97.20;;;;;;5014380;28;20455;-69
2023/07/16 05:52:03;;;;;;;3.23;2.10;;;22.40;96.70;;;;;;5014158;28;20849;-68
2023/07/16 05:54:31;;;;;;;4.50;2.23;;;22.30;97.10;;;;;;5009264;28;20455;-69
2023/07/16 05:56:58;;;;;;;3.80;2.03;;;22.30;97.20;;;;;;5014709;28;20440;-69
2023/07/16 05:59:25;;;;;;;3.97;2.27;;;22.30;97.40;;;;;;5014215;28;20539;-69
2023/07/16 06:01:52;;;;;;;4.50;1.77;;;22.40;97.10;;;;;;5014262;28;20440;-69
2023/07/16 06:04:18;;;;;;;3.27;1.90;;;22.40;97.50;;;;;;5013855;28;20527;-69
2023/07/16 06:06:47;;;;;;;2.60;1.50;;;22.50;97.50;;;;;;5014441;28;20531;-69
2023/07/16 06:09:14;;;;;;;2.80;1.70;;;22.50;97.20;;;;;;5014280;28;20558;-68
2023/07/16 06:11:41;;;;;;;4.73;1.97;;;22.60;97.00;;;;;;5013997;28;20475;-69
2023/07/16 06:14:07;;;;;;;4.87;1.77;;;22.50;97.20;;;;;;5007957;28;20555;-69
2023/07/16 06:16:34;;;;;;;3.30;1.87;;;22.50;97.10;;;;;;4994363;28;20473;-68
2023/07/16 06:19:01;;;;;;;3.00;1.57;;;22.50;96.90;;;;;;4994097;28;20999;-69
2023/07/16 06:21:28;;;;;;;3.70;1.47;;;22.50;97.20;;;;;;4994609;28;20813;-69
2023/07/16 06:23:56;;;;;;;3.93;1.73;;;22.50;97.20;;;;;;4997090;28;20604;-69
2023/07/16 06:26:23;;;;;;;4.00;2.10;;;22.60;97.90;;;;;;5014012;28;20534;-69
2023/07/16 06:28:50;;;;;;;2.57;1.53;;;22.60;98.30;;;;;;5011943;28;20574;-68
2023/07/16 06:31:17;;;;;;;2.60;1.47;;;22.70;98.40;;;;;;5013208;28;20986;-68
2023/07/16 06:33:46;;;;;;;3.10;1.80;;;22.80;98.50;;;;;;5006275;28;21022;-69
2023/07/16 06:36:13;;;;;;;4.70;1.80;;;22.80;98.30;;;;;;5011852;28;20441;-70
2023/07/16 06:38:40;;;;;;;3.23;2.20;;;22.90;98.60;;;;;;4994047;28;20884;-69
2023/07/16 06:41:08;;;;;;;5.17;1.50;;;23.00;98.70;;;;;;4994981;28;21016;-69
2023/07/16 06:43:35;;;;;;;3.70;1.77;;;23.10;97.30;;;;;;4994056;28;20529;-69
2023/07/16 06:46:03;;;;;;;2.57;1.27;;;23.10;97.40;;;;;;4994160;28;20529;-69
2023/07/16 06:48:30;;;;;;;3.17;1.50;;;23.20;97.00;;;;;;4993717;28;20995;-68
2023/07/16 06:50:57;;;;;;;3.43;1.50;;;23.10;95.70;;;;;;4993945;28;20521;-72
2023/07/16 06:53:24;;;;;;;2.37;1.33;;;23.00;96.20;;;;;;4993782;28;20533;-69
2023/07/16 06:55:51;;;;;;;2.30;1.30;;;23.10;95.60;;;;;;4993801;28;20544;-69
2023/07/16 06:58:19;;;;;;;3.67;1.47;;;23.20;96.00;;;;;;4993525;28;20449;-70
2023/07/16 07:00:46;;;;;;;3.30;1.70;;;23.40;96.00;;;;;;4993919;28;20532;-70
2023/07/16 07:03:13;;;;;;;5.70;1.40;;;23.40;96.50;;;;;;4993115;28;20527;-69
2023/07/16 07:05:42;;;;;;;6.03;1.97;;;23.40;96.60;;;;;;4993293;28;20940;-69
2023/07/16 07:08:09;;;;;;;3.53;1.63;;;23.50;95.40;;;;;;4993175;28;20478;-69
2023/07/16 07:10:37;;;;;;;2.63;1.40;;;23.50;95.20;;;;;;5007755;28;20536;-69
2023/07/16 07:13:04;;;;;;;2.97;1.40;;;23.60;95.20;;;;;;4999532;28;20474;-69
2023/07/16 07:15:33;;;;;;;2.43;1.50;;;23.80;94.90;;;;;;4993768;28;20524;-68
2023/07/16 07:18:00;;;;;;;3.53;1.50;;;23.90;94.60;;;;;;4993499;28;20445;-70
2023/07/16 07:20:28;;;;;;;2.43;1.30;;;24.00;95.60;;;;;;4993599;28;20473;-70
2023/07/16 07:22:55;;;;;;;3.00;1.57;;;24.10;95.00;;;;;;4993236;28;20944;-69
2023/07/16 07:25:24;;;;;;;2.50;1.20;;;24.20;94.50;;;;;;4993572;28;20450;-69
2023/07/16 07:27:51;;;;;;;2.10;0.90;;;24.30;94.40;;;;;;4993378;28;20573;-70
2023/07/16 07:30:19;;;;;;;3.00;1.23;;;24.20;90.50;;;;;;4996860;28;20538;-70
2023/07/16 07:32:47;;;;;;;2.90;1.53;;;24.20;91.00;;;;;;5011763;28;20525;-69
2023/07/16 07:35:14;;;;;;;2.60;1.30;;;24.20;92.20;;;;;;4996084;28;20474;-69
2023/07/16 07:37:41;;;;;;;2.40;1.20;;;24.20;91.80;;;;;;4993066;28;20537;-68
2023/07/16 07:40:09;;;;;;;2.50;1.17;;;24.30;91.90;;;;;;5002737;28;20477;-68
2023/07/16 07:42:36;;;;;;;4.10;1.40;;;24.30;91.70;;;;;;5012937;28;20481;-68
2023/07/16 07:45:04;;;;;;;3.57;1.67;;;24.30;90.90;;;;;;5001542;28;20510;-68
2023/07/16 07:47:31;;;;;;;2.87;1.33;;;24.30;90.30;;;;;;4992063;28;21016;-68
2023/07/16 07:50:00;;;;;;;2.93;1.20;;;24.30;89.00;;;;;;5001428;28;20434;-68
2023/07/16 07:52:28;;;;;;;2.80;1.50;;;24.30;88.00;;;;;;5012981;28;20442;-68
2023/07/16 07:54:55;;;;;;;4.00;1.30;;;24.30;87.80;;;;;;5008683;28;20513;-70
2023/07/16 07:57:22;;;;;;;3.83;2.10;;;24.40;88.40;;;;;;4999667;28;20524;-71
2023/07/16 07:59:51;;;;;;;4.60;1.70;;;24.40;84.10;;;;;;5012828;28;20444;-68
2023/07/16 08:02:23;;;;;;;4.17;1.70;;;24.50;82.00;;;;;;5005579;28;20474;-68
2023/07/16 08:04:51;;;;;;;3.20;1.80;;;24.50;84.70;;;;;;5004246;28;20437;-68
2023/07/16 08:07:22;;;;;;;3.10;1.13;;;24.60;84.00;;;;;;5011989;28;20529;-68
2023/07/16 08:09:50;;;;;;;2.50;1.30;;;24.70;83.30;;;;;;5009010;28;20565;-68
2023/07/16 08:12:30;;;;;;;5.57;1.60;;;24.80;82.90;;;;;;4997282;28;20498;-68
2023/07/16 08:15:13;;;;;;;3.03;1.73;;;25.00;82.60;;;;;;4993495;28;20522;-68
2023/07/16 08:17:41;;;;;;;3.30;1.50;;;25.20;80.10;;;;;;4988892;28;20443;-68
2023/07/16 08:20:09;;;;;;;2.43;1.33;;;25.30;77.70;;;;;;5014328;28;20952;-68
2023/07/16 08:22:42;;;;;;;3.20;1.50;;;25.40;76.60;;;;;;5016337;28;20858;-69
2023/07/16 08:25:10;;;;;;;2.80;1.50;;;25.50;76.90;;;;;;5015906;28;20861;-68
2023/07/16 08:27:42;;;;;;;2.20;1.20;;;25.60;73.20;;;;;;5015779;28;20986;-68
2023/07/16 08:30:09;;;;;;;3.70;1.60;;;25.50;70.80;;;;;;5012311;28;20541;-70
2023/07/16 08:32:36;;;;;;;2.60;1.50;;;25.50;72.20;;;;;;5007942;28;20833;-68
2023/07/16 08:35:04;;;;;;;2.50;1.30;;;25.50;74.40;;;;;;5006832;28;21133;-68
2023/07/16 08:37:35;;;;;;;2.20;1.20;;;25.60;74.50;;;;;;5012935;28;20521;-68
2023/07/16 08:40:09;;;;;;;2.37;1.10;;;25.60;74.10;;;;;;5007643;28;20431;-69
2023/07/16 08:42:37;;;;;;;4.37;1.40;;;25.70;74.90;;;;;;5010643;28;20444;-68
2023/07/16 08:45:07;;;;;;;2.63;1.60;;;25.80;70.70;;;;;;5006611;28;20518;-68
2023/07/16 08:47:35;;;;;;;3.80;2.10;;;25.80;70.90;;;;;;5010874;28;20522;-68
2023/07/16 08:50:03;;;;;;;3.23;1.20;;;25.90;71.20;;;;;;5009656;28;20502;-68
2023/07/16 08:52:30;;;;;;;4.50;1.53;;;26.00;72.20;;;;;;5010940;28;20457;-68
2023/07/16 08:54:57;;;;;;;2.60;1.40;;;26.20;73.80;;;;;;5011222;28;20460;-69
2023/07/16 08:57:27;;;;;;;2.67;1.37;;;26.40;74.10;;;;;;5015455;28;20543;-68
2023/07/16 08:59:56;;;;;;;3.53;1.60;;;26.60;71.90;;;;;;5015524;28;20534;-72
2023/07/16 09:02:24;;;;;;;2.70;1.30;;;26.80;70.70;;;;;;5015118;28;20438;-68
2023/07/16 09:04:52;;;;;;;4.30;1.97;;;27.00;68.10;;;;;;5015424;28;20545;-68
2023/07/16 09:07:19;;;;;;;2.83;1.80;;;27.00;69.00;;;;;;5012669;28;20443;-68
2023/07/16 09:09:58;;;;;;;3.43;1.50;;;27.20;70.70;;;;;;5015336;28;20562;-68
2023/07/16 09:12:27;;;;;;;2.43;1.43;;;27.30;69.00;;;;;;5015313;28;20463;-68
2023/07/16 09:14:54;;;;;;;3.37;2.00;;;27.40;66.00;;;;;;5015318;28;20526;-68
2023/07/16 09:17:23;;;;;;;2.67;1.73;;;27.50;64.20;;;;;;5015279;28;20482;-68
2023/07/16 09:19:51;;;;;;;3.27;1.10;;;27.40;64.60;;;;;;5015020;28;20451;-68
2023/07/16 09:22:19;;;;;;;2.60;1.47;;;27.50;63.30;;;;;;5014907;28;20435;-68
2023/07/16 09:24:47;;;;;;;2.47;1.20;;;27.50;61.80;;;;;;5015117;28;20435;-68
2023/07/16 09:27:14;;;;;;;2.90;1.60;;;27.50;62.50;;;;;;5013856;28;20436;-69
2023/07/16 09:29:46;;;;;;;2.90;1.83;;;27.50;61.00;;;;;;5014880;28;20510;-68
2023/07/16 09:32:19;;;;;;;4.27;1.40;;;27.60;58.40;;;;;;5015048;28;20455;-68
2023/07/16 09:34:46;;;;;;;2.30;1.27;;;27.60;59.90;;;;;;5014571;28;20459;-68
2023/07/16 09:37:13;;;;;;;3.10;1.53;;;27.70;59.20;;;;;;5014868;28;20522;-68
2023/07/16 09:39:40;;;;;;;3.53;1.67;;;27.80;57.90;;;;;;5014728;28;20530;-68
2023/07/16 09:42:08;;;;;;;3.77;1.60;;;27.90;58.80;;;;;;5014309;28;20471;-68
2023/07/16 09:44:35;;;;;;;2.50;1.50;;;28.00;58.60;;;;;;5007863;28;20439;-68
2023/07/16 09:47:04;;;;;;;3.00;1.53;;;28.20;57.40;;;;;;5014560;28;20526;-68
2023/07/16 09:49:32;;;;;;;2.90;1.30;;;28.30;58.30;;;;;;5008846;28;20547;-70
2023/07/16 09:52:03;;;;;;;3.20;1.37;;;28.50;56.50;;;;;;5010310;28;20442;-75
2023/07/16 09:54:37;;;;;;;3.23;1.57;;;28.60;54.50;;;;;;5002316;28;20440;-68
2023/07/16 09:57:05;;;;;;;3.93;1.60;;;28.60;56.00;;;;;;4992119;28;20536;-68
2023/07/16 09:59:35;;;;;;;6.43;2.10;;;28.60;56.60;;;;;;4994180;28;20468;-71
2023/07/16 10:02:07;;;;;;;4.00;1.60;;;28.80;57.40;;;;;;4994396;28;20467;-68
2023/07/16 10:04:39;;;;;;;3.30;1.70;;;28.90;56.40;;;;;;4994291;28;20439;-70
2023/07/16 10:07:07;;;;;;;2.53;1.50;;;29.10;56.30;;;;;;4993663;28;20492;-68
2023/07/16 10:09:52;;;;;;;4.80;2.33;;;29.10;56.20;;;;;;4995578;28;20848;-69
2023/07/16 10:12:21;;;;;;;2.80;1.33;;;29.30;54.20;;;;;;4993588;28;20504;-68
2023/07/16 10:14:49;;;;;;;5.60;2.00;;;29.40;54.30;;;;;;5011980;28;20485;-68
2023/07/16 10:17:19;;;;;;;3.90;1.57;;;29.50;55.40;;;;;;5003228;28;20547;-69
2023/07/16 10:19:51;;;;;;;3.00;1.80;;;29.60;54.20;;;;;;4993648;28;20833;-68
2023/07/16 10:22:19;;;;;;;4.77;2.03;;;29.80;54.50;;;;;;4995285;28;20491;-68
2023/07/16 10:24:53;;;;;;;3.10;1.57;;;29.90;51.00;;;;;;5001882;28;20542;-69
2023/07/16 10:27:31;;;;;;;2.93;1.33;;;29.90;48.50;;;;;;4994953;28;20458;-74
2023/07/16 10:30:03;;;;;;;2.47;1.40;;;29.90;48.80;;;;;;4999506;28;20462;-69
2023/07/16 10:32:34;;;;;;;3.00;1.40;;;29.90;48.30;;;;;;4993899;28;20439;-68
2023/07/16 10:35:06;;;;;;;3.40;1.27;;;29.80;49.40;;;;;;5000850;28;20475;-68
2023/07/16 10:37:33;;;;;;;2.60;1.33;;;29.90;49.40;;;;;;5010380;28;20459;-75
2023/07/16 10:40:04;;;;;;;6.67;3.87;;;29.90;49.50;;;;;;4990360;28;20459;-68
2023/07/16 10:42:32;;;;;;;13.00;6.43;;;30.00;51.60;;;;;;4992657;28;20538;-69
2023/07/16 10:45:00;;;;;;;4.43;2.53;;;30.00;52.10;;;;;;4993045;28;20440;-68
2023/07/16 10:47:33;;;;;;;4.30;2.27;;;30.00;51.90;;;;;;4987414;28;20555;-69
2023/07/16 10:50:01;;;;;;;6.20;3.10;;;30.10;52.00;;;;;;4992573;28;21053;-68
2023/07/16 10:52:28;;;;;;;11.17;3.00;;;30.10;52.50;;;;;;5005878;28;20440;-68
2023/07/16 10:54:55;;;;;;;4.50;2.50;;;30.20;51.70;;;;;;4991334;28;20531;-70
2023/07/16 10:57:22;;;;;;;3.00;1.33;;;30.20;51.30;;;;;;4991961;28;20464;-68
2023/07/16 10:59:51;;;;;;;6.60;3.03;;;30.20;48.40;;;;;;4989958;28;20459;-74
2023/07/16 11:02:18;;;;;;;4.73;2.43;;;30.20;50.00;;;;;;4997727;28;21011;-68
2023/07/16 11:04:49;;;;;;;4.67;2.40;;;30.20;50.70;;;;;;5000633;28;20551;-68
2023/07/16 11:07:17;;;;;;;4.90;3.57;;;30.20;50.50;;;;;;4997390;28;20551;-71
2023/07/16 11:09:45;;;;;;;12.63;2.40;;;30.20;50.30;;;;;;4999216;28;20603;-67
2023/07/16 11:12:15;;;;;;;3.57;1.93;;;30.20;49.50;;;;;;4993919;28;21211;-68
2023/07/16 11:14:48;;;;;;;6.03;1.90;;;30.20;49.40;;;;;;5007968;28;20537;-75
2023/07/16 11:17:15;;;;;;;5.70;2.07;;;30.30;48.90;;;;;;4993051;28;20471;-71
2023/07/16 11:19:47;;;;;;;3.70;1.80;;;30.40;48.90;;;;;;5002084;28;20459;-68
2023/07/16 11:22:16;;;;;;;3.90;1.63;;;30.40;47.90;;;;;;4993692;28;20507;-68
2023/07/16 11:24:44;;;;;;;4.00;1.80;;;30.40;47.90;;;;;;4993091;28;20444;-68
2023/07/16 11:27:15;;;;;;;6.10;1.83;;;30.30;48.00;;;;;;4992899;28;20539;-68
2023/07/16 11:29:47;;;;;;;4.93;2.10;;;30.10;48.30;;;;;;4989585;28;20477;-75
2023/07/16 11:32:14;;;;;;;6.03;1.93;;;30.10;48.10;;;;;;4991483;28;20803;-68
2023/07/16 11:34:54;;;;;;;3.53;1.80;;;30.10;48.50;;;;;;4990190;28;20652;-68
2023/07/16 11:37:21;;;;;;;4.23;1.80;;;30.10;48.20;;;;;;4989328;28;20869;-68
2023/07/16 11:39:48;;;;;;;3.30;1.70;;;30.20;48.30;;;;;;4991189;28;20457;-69
2023/07/16 11:42:18;;;;;;;2.80;1.70;;;30.40;46.60;;;;;;4992364;28;20490;-68
2023/07/16 11:44:50;;;;;;;4.03;2.07;;;30.40;47.40;;;;;;4991677;28;20440;-68
2023/07/16 11:47:17;;;;;;;2.87;1.57;;;30.30;47.20;;;;;;4991172;28;20478;-67
2023/07/16 11:49:44;;;;;;;15.10;2.43;;;30.30;47.40;;;;;;4989619;28;21054;-68
2023/07/16 11:52:12;;;;;;;4.60;1.80;;;30.40;47.40;;;;;;4997686;28;20539;-70
2023/07/16 11:54:39;;;;;;;4.53;2.00;;;30.40;47.10;;;;;;4996627;28;20448;-68
2023/07/16 11:57:07;;;;;;;3.60;2.30;;;30.40;46.90;;;;;;4997138;28;20538;-68
2023/07/16 11:59:34;;;;;;;6.10;2.23;;;30.30;46.70;;;;;;5009932;28;20526;-68
2023/07/16 12:02:06;;;;;;;4.20;2.00;;;30.30;47.10;;;;;;5000283;28;20833;-74
2023/07/16 12:04:33;;;;;;;4.53;2.10;;;30.30;47.30;;;;;;4996876;28;20511;-68
2023/07/16 12:07:00;;;;;;;3.10;1.57;;;30.30;46.90;;;;;;4996030;28;20442;-68
2023/07/16 12:09:29;;;;;;;3.53;1.67;;;30.30;47.00;;;;;;4994340;28;20474;-72
2023/07/16 12:11:56;;;;;;;3.53;1.60;;;30.40;45.80;;;;;;5004784;28;20621;-68
2023/07/16 12:14:24;;;;;;;3.83;1.63;;;30.40;45.50;;;;;;5010090;28;20550;-68
2023/07/16 12:16:50;;;;;;;3.00;1.63;;;30.50;45.30;;;;;;5004137;28;20970;-68
2023/07/16 12:19:22;;;;;;;3.83;1.60;;;30.50;46.20;;;;;;5015633;28;20443;-68
2023/07/16 12:21:49;;;;;;;4.30;1.83;;;30.60;46.90;;;;;;5015753;28;20510;-68
2023/07/16 12:24:17;;;;;;;2.67;1.73;;;30.60;46.50;;;;;;5012686;28;20534;-68
2023/07/16 12:26:45;;;;;;;3.87;1.73;;;30.60;46.50;;;;;;4995438;28;21030;-69
2023/07/16 12:29:12;;;;;;;4.57;1.77;;;30.60;46.10;;;;;;5002919;28;20945;-68
2023/07/16 12:31:39;;;;;;;3.67;1.90;;;30.60;46.50;;;;;;4993392;28;20883;-68
2023/07/16 12:34:05;;;;;;;2.93;1.93;;;30.60;46.40;;;;;;5007434;28;20534;-68
2023/07/16 12:36:32;;;;;;;2.10;1.20;;;30.50;46.10;;;;;;5004265;28;20490;-69
2023/07/16 12:39:00;;;;;;;2.93;1.40;;;30.40;46.60;;;;;;4996160;28;20512;-68
2023/07/16 12:41:26;;;;;;;3.33;2.10;;;30.50;46.80;;;;;;5000983;28;20459;-68
2023/07/16 12:43:55;;;;;;;5.57;2.07;;;30.40;47.10;;;;;;4997188;28;20535;-68
2023/07/16 12:46:22;;;;;;;4.73;1.73;;;30.40;46.60;;;;;;5005015;28;20557;-68
2023/07/16 12:48:49;;;;;;;8.60;1.80;;;30.30;46.70;;;;;;5015663;28;20597;-68
2023/07/16 12:51:16;;;;;;;8.00;2.53;;;30.30;46.70;;;;;;5002279;28;20575;-67